createdAt,value
2023-01-21T00:00:07.067Z,24.6
2023-01-21T00:01:14.809Z,21.1
2023-01-21T00:02:22.417Z,22.7
2023-01-21T00:03:29.546Z,30.4
2023-01-21T00:04:36.596Z,22.5
2023-01-21T00:05:43.740Z,25.3
2023-01-21T00:06:50.751Z,23.5
2023-01-21T00:07:57.832Z,24
2023-01-21T00:09:05.055Z,23.9
2023-01-21T00:10:12.278Z,24.1
2023-01-21T00:11:19.356Z,23.4
2023-01-21T00:12:26.449Z,23.1
2023-01-21T00:13:33.555Z,25.2
2023-01-21T00:14:40.683Z,21.4
2023-01-21T00:15:47.818Z,23.2
2023-01-21T00:16:55.092Z,30.1
2023-01-21T00:18:02.536Z,24.9
2023-01-21T00:19:10.195Z,24.6
2023-01-21T00:20:17.527Z,22.3
2023-01-21T00:21:24.555Z,22.1
2023-01-21T00:22:31.616Z,21.2
2023-01-21T00:23:38.907Z,22.6
2023-01-21T00:24:45.871Z,20.2
2023-01-21T00:25:52.982Z,20.8
2023-01-21T00:27:05.204Z,17.9
2023-01-21T00:28:12.258Z,19.1
2023-01-21T00:29:19.539Z,26.3
2023-01-21T00:30:26.632Z,20.6
2023-01-21T00:31:33.894Z,21
2023-01-21T00:32:40.961Z,18.4
2023-01-21T00:33:47.893Z,19.7
2023-01-21T00:34:55.056Z,18.8
2023-01-21T00:36:02.214Z,19
2023-01-21T00:37:09.384Z,20
2023-01-21T00:38:16.543Z,20.1
2023-01-21T00:39:23.640Z,20.4
2023-01-21T00:40:30.687Z,19.3
2023-01-21T00:41:37.929Z,17.6
2023-01-21T00:42:44.984Z,17.6
2023-01-21T00:43:52.012Z,19
2023-01-21T00:44:59.250Z,19.1
2023-01-21T00:46:06.873Z,19.8
2023-01-21T00:47:13.891Z,18.6
2023-01-21T00:48:20.999Z,18.8
2023-01-21T00:49:28.211Z,17.9
2023-01-21T00:50:35.344Z,16
2023-01-21T00:51:42.477Z,17.7
2023-01-21T00:52:49.457Z,16.5
2023-01-21T00:53:56.546Z,17.4
2023-01-21T00:55:03.745Z,17.6
2023-01-21T00:56:10.921Z,19.2
2023-01-21T00:57:18.122Z,16.9
2023-01-21T00:58:25.194Z,18.5
2023-01-21T00:59:32.331Z,17.9
2023-01-21T01:00:39.322Z,18.1
2023-01-21T01:01:46.594Z,18.3
2023-01-21T01:02:53.635Z,17.7
2023-01-21T01:04:00.797Z,17.5
2023-01-21T01:05:07.833Z,16.8
2023-01-21T01:06:14.893Z,19
2023-01-21T01:07:22.160Z,18.5
2023-01-21T01:08:29.242Z,17.2
2023-01-21T01:09:36.324Z,17.8
2023-01-21T01:10:43.475Z,17
2023-01-21T01:11:50.519Z,17.3
2023-01-21T01:12:57.615Z,17.5
2023-01-21T01:14:04.826Z,16.7
2023-01-21T01:15:11.964Z,17.7
2023-01-21T01:16:19.062Z,17.3
2023-01-21T01:17:26.267Z,16.2
2023-01-21T01:18:33.339Z,16.2
2023-01-21T01:19:40.597Z,17
2023-01-21T01:20:48.042Z,17.9
2023-01-21T01:21:55.182Z,15.4
2023-01-21T01:23:02.372Z,17.4
2023-01-21T01:24:09.492Z,17.8
2023-01-21T01:25:16.555Z,16.7
2023-01-21T01:26:23.759Z,16.8
2023-01-21T01:27:30.897Z,16.2
2023-01-21T01:28:38.098Z,16
2023-01-21T01:29:45.210Z,17.3
2023-01-21T01:30:52.503Z,16.9
2023-01-21T01:31:59.300Z,14.9
2023-01-21T01:33:06.359Z,16.9
2023-01-21T01:34:13.554Z,17.8
2023-01-21T01:35:20.759Z,16.3
2023-01-21T01:36:27.885Z,16.8
2023-01-21T01:37:35.093Z,17.6
2023-01-21T01:38:42.209Z,15.6
2023-01-21T01:39:49.234Z,16
2023-01-21T01:40:56.338Z,14.2
2023-01-21T01:42:03.631Z,16
2023-01-21T01:43:11.275Z,14.6
2023-01-21T01:44:20.840Z,15.6
2023-01-21T01:45:38.148Z,15.5
2023-01-21T01:46:45.321Z,15.9
2023-01-21T01:47:52.400Z,15.7
2023-01-21T01:48:59.435Z,15.8
2023-01-21T01:50:09.263Z,16
2023-01-21T01:51:16.320Z,15
2023-01-21T01:52:23.400Z,14.4
2023-01-21T01:53:30.671Z,14
2023-01-21T01:54:37.662Z,15.7
2023-01-21T01:55:44.934Z,15.4
2023-01-21T01:56:51.952Z,15
2023-01-21T01:57:59.054Z,14.5
2023-01-21T01:59:06.149Z,16.2
2023-01-21T02:00:13.274Z,16.5
2023-01-21T02:01:20.523Z,15
2023-01-21T02:02:27.672Z,14
2023-01-21T02:03:34.836Z,16.5
2023-01-21T02:04:46.971Z,16
2023-01-21T02:05:53.927Z,17.2
2023-01-21T02:07:01.100Z,15.2
2023-01-21T02:08:08.143Z,15.2
2023-01-21T02:09:15.296Z,15.7
2023-01-21T02:10:22.487Z,14.6
2023-01-21T02:11:29.680Z,15.2
2023-01-21T02:12:36.774Z,14.6
2023-01-21T02:13:43.871Z,15.6
2023-01-21T02:14:53.937Z,14
2023-01-21T02:16:01.168Z,14.5
2023-01-21T02:17:15.967Z,13.8
2023-01-21T02:18:28.137Z,13.3
2023-01-21T02:19:45.452Z,14.8
2023-01-21T02:21:02.667Z,16.4
2023-01-21T02:22:17.530Z,16.7
2023-01-21T02:23:24.643Z,16.9
2023-01-21T02:24:39.890Z,17.2
2023-01-21T02:25:57.600Z,14.9
2023-01-21T02:27:09.867Z,14.9
2023-01-21T02:28:27.156Z,15.8
2023-01-21T02:29:34.482Z,16.7
2023-01-21T02:30:49.505Z,16.8
2023-01-21T02:32:06.903Z,17.6
2023-01-21T02:33:22.134Z,16.6
2023-01-21T02:34:39.587Z,18.3
2023-01-21T02:35:52.452Z,16.8
2023-01-21T02:37:07.815Z,16.8
2023-01-21T02:38:18.031Z,16.4
2023-01-21T02:39:25.207Z,15.8
2023-01-21T02:40:40.427Z,16.8
2023-01-21T02:41:57.593Z,16.7
2023-01-21T02:43:12.956Z,15.1
2023-01-21T02:44:25.180Z,16.1
2023-01-21T02:45:37.432Z,16.3
2023-01-21T02:46:44.501Z,17.3
2023-01-21T02:47:54.201Z,15.7
2023-01-21T02:49:09.355Z,17.6
2023-01-21T02:50:21.666Z,17.7
2023-01-21T02:51:31.722Z,15.4
2023-01-21T02:52:38.919Z,16.3
2023-01-21T02:53:46.071Z,17
2023-01-21T02:54:53.145Z,16
2023-01-21T02:56:01.413Z,16.6
2023-01-21T02:57:08.426Z,15.4
2023-01-21T02:58:15.487Z,14.3
2023-01-21T02:59:22.716Z,15.9
2023-01-21T03:00:29.870Z,15.6
2023-01-21T03:01:40.048Z,15.6
2023-01-21T03:02:52.608Z,14.6
2023-01-21T03:04:09.987Z,15
2023-01-21T03:05:22.218Z,13.6
2023-01-21T03:06:34.911Z,13.7
2023-01-21T03:07:48.077Z,14.5
2023-01-21T03:09:05.786Z,13.1
2023-01-21T03:10:20.661Z,14.7
2023-01-21T03:11:30.867Z,15
2023-01-21T03:12:37.975Z,14.9
2023-01-21T03:13:53.138Z,15.5
2023-01-21T03:15:13.499Z,13.9
2023-01-21T03:16:25.777Z,13.3
2023-01-21T03:17:37.986Z,15.2
2023-01-21T03:18:45.154Z,14.1
2023-01-21T03:19:52.699Z,13.7
2023-01-21T03:21:04.882Z,14.3
2023-01-21T03:22:11.954Z,13
2023-01-21T03:23:19.092Z,13.5
2023-01-21T03:24:34.425Z,13.5
2023-01-21T03:25:41.563Z,14.1
2023-01-21T03:26:48.511Z,15.7
2023-01-21T03:27:55.627Z,13
2023-01-21T03:29:02.754Z,14.1
2023-01-21T03:30:09.850Z,14.8
2023-01-21T03:31:17.109Z,13.7
2023-01-21T03:32:24.150Z,13.2
2023-01-21T03:33:31.219Z,14.1
2023-01-21T03:34:38.386Z,13.8
2023-01-21T03:35:45.510Z,12.7
2023-01-21T03:36:52.956Z,13.7
2023-01-21T03:38:00.266Z,13.4
2023-01-21T03:39:07.242Z,13.7
2023-01-21T03:40:14.510Z,14.7
2023-01-21T03:41:26.642Z,13.6
2023-01-21T03:42:34.191Z,14.7
2023-01-21T03:43:41.372Z,14.7
2023-01-21T03:44:48.919Z,13.9
2023-01-21T03:45:56.045Z,13.4
2023-01-21T03:47:03.323Z,14.9
2023-01-21T03:48:18.473Z,15.5
2023-01-21T03:49:35.778Z,15.8
2023-01-21T03:50:50.863Z,15.8
2023-01-21T03:51:58.068Z,14.6
2023-01-21T03:53:05.280Z,14.3
2023-01-21T03:54:12.234Z,14.8
2023-01-21T03:55:19.403Z,14
2023-01-21T03:56:26.524Z,15
2023-01-21T03:57:33.723Z,13.7
2023-01-21T03:58:40.828Z,12.5
2023-01-21T03:59:47.754Z,13.1
2023-01-21T04:00:54.967Z,14.2
2023-01-21T04:02:02.117Z,13.5
2023-01-21T04:03:09.199Z,14.1
2023-01-21T04:04:16.327Z,15.2
2023-01-21T04:05:23.626Z,14
2023-01-21T04:06:30.646Z,11.9
2023-01-21T04:07:38.197Z,12.8
2023-01-21T04:08:45.370Z,13.7
2023-01-21T04:10:05.098Z,13.8
2023-01-21T04:11:17.920Z,13.6
2023-01-21T04:12:25.088Z,13.3
2023-01-21T04:13:32.163Z,12.7
2023-01-21T04:14:39.317Z,12.6
2023-01-21T04:15:46.390Z,13.7
2023-01-21T04:16:53.344Z,13.7
2023-01-21T04:18:00.537Z,14
2023-01-21T04:19:07.681Z,13.1
2023-01-21T04:20:15.074Z,13.6
2023-01-21T04:21:21.879Z,14.5
2023-01-21T04:22:29.055Z,13.1
2023-01-21T04:23:36.194Z,13.6
2023-01-21T04:24:43.273Z,13.5
2023-01-21T04:25:50.487Z,14.9
2023-01-21T04:26:57.947Z,16.4
2023-01-21T04:28:05.092Z,14.9
2023-01-21T04:29:12.225Z,13
2023-01-21T04:30:19.397Z,13.3
2023-01-21T04:31:26.422Z,13.4
2023-01-21T04:32:33.702Z,13.5
2023-01-21T04:33:40.659Z,12.4
2023-01-21T04:34:47.713Z,12.5
2023-01-21T04:35:54.898Z,11.5
2023-01-21T04:37:05.066Z,11.2
2023-01-21T04:38:12.179Z,11.7
2023-01-21T04:39:19.360Z,13.1
2023-01-21T04:40:26.506Z,11.8
2023-01-21T04:41:33.616Z,13
2023-01-21T04:42:40.792Z,12.2
2023-01-21T04:43:47.727Z,12
2023-01-21T04:44:54.792Z,11.4
2023-01-21T04:46:02.200Z,12
2023-01-21T04:47:09.141Z,11
2023-01-21T04:48:16.195Z,12.7
2023-01-21T04:49:23.282Z,11.9
2023-01-21T04:50:30.407Z,11.7
2023-01-21T04:51:37.615Z,10.8
2023-01-21T04:52:44.818Z,12
2023-01-21T04:53:52.328Z,13.1
2023-01-21T04:54:59.386Z,13.2
2023-01-21T04:56:06.499Z,14.4
2023-01-21T04:57:13.636Z,15.4
2023-01-21T04:58:20.808Z,13.2
2023-01-21T04:59:28.063Z,13.1
2023-01-21T05:00:35.088Z,14.2
2023-01-21T05:01:42.091Z,14.8
2023-01-21T05:02:49.236Z,14.8
2023-01-21T05:03:56.266Z,13.1
2023-01-21T05:05:03.470Z,12.2
2023-01-21T05:06:11.093Z,13.4
2023-01-21T05:07:20.162Z,15.5
2023-01-21T05:08:25.315Z,15.5
2023-01-21T05:09:32.457Z,14.7
2023-01-21T05:10:39.586Z,14.2
2023-01-21T05:11:46.714Z,14.2
2023-01-21T05:12:53.832Z,14.5
2023-01-21T05:14:00.840Z,14.5
2023-01-21T05:15:07.989Z,14.5
2023-01-21T05:16:15.102Z,15.4
2023-01-21T05:17:22.225Z,15.9
2023-01-21T05:18:29.456Z,15.8
2023-01-21T05:19:36.533Z,16.9
2023-01-21T05:20:43.624Z,17.6
2023-01-21T05:21:51.064Z,16.5
2023-01-21T05:22:58.274Z,16.3
2023-01-21T05:24:05.319Z,16.5
2023-01-21T05:25:12.673Z,17.2
2023-01-21T05:26:20.130Z,16.1
2023-01-21T05:27:27.342Z,16.6
2023-01-21T05:28:34.413Z,17.4
2023-01-21T05:29:41.600Z,16.4
2023-01-21T05:30:48.574Z,16.2
2023-01-21T05:31:55.731Z,17.3
2023-01-21T05:33:02.755Z,18.7
2023-01-21T05:34:09.886Z,16.3
2023-01-21T05:35:17.022Z,15.1
2023-01-21T05:36:24.123Z,17.8
2023-01-21T05:37:31.434Z,18.4
2023-01-21T05:38:38.518Z,17.8
2023-01-21T05:39:45.514Z,18.3
2023-01-21T05:40:52.570Z,17.9
2023-01-21T05:42:02.743Z,20.2
2023-01-21T05:43:09.939Z,16.9
2023-01-21T05:44:17.787Z,16.2
2023-01-21T05:45:24.144Z,16.3
2023-01-21T05:46:31.354Z,18.3
2023-01-21T05:47:38.450Z,17.1
2023-01-21T05:48:45.561Z,16
2023-01-21T05:49:52.966Z,19
2023-01-21T05:51:00.160Z,17
2023-01-21T05:52:07.334Z,18.6
2023-01-21T05:53:14.364Z,16.3
2023-01-21T05:54:21.494Z,17.2
2023-01-21T05:55:28.669Z,18.2
2023-01-21T05:56:35.837Z,16.7
2023-01-21T05:57:42.945Z,16.5
2023-01-21T05:58:49.991Z,17.6
2023-01-21T05:59:57.062Z,17.9
2023-01-21T06:01:04.187Z,18
2023-01-21T06:02:11.587Z,18
2023-01-21T06:03:19.032Z,18
2023-01-21T06:04:26.287Z,17.6
2023-01-21T06:05:33.225Z,18.6
2023-01-21T06:06:40.326Z,18.8
2023-01-21T06:07:47.369Z,17.4
2023-01-21T06:08:54.521Z,16.4
2023-01-21T06:10:01.696Z,16.9
2023-01-21T06:11:09.310Z,16
2023-01-21T06:12:16.458Z,16.8
2023-01-21T06:13:23.468Z,17.9
2023-01-21T06:14:30.570Z,16.2
2023-01-21T06:15:37.779Z,16.6
2023-01-21T06:16:44.959Z,16.5
2023-01-21T06:17:52.663Z,15
2023-01-21T06:18:59.582Z,15.3
2023-01-21T06:20:06.688Z,17.6
2023-01-21T06:21:14.389Z,17.2
2023-01-21T06:22:21.541Z,17.1
2023-01-21T06:23:28.718Z,15.3
2023-01-21T06:24:35.829Z,17.2
2023-01-21T06:25:42.958Z,16.7
2023-01-21T06:26:49.949Z,13.8
2023-01-21T06:27:57.119Z,17.1
2023-01-21T06:29:04.157Z,15.9
2023-01-21T06:30:11.421Z,16.2
2023-01-21T06:31:19.287Z,14.9
2023-01-21T06:32:26.635Z,14.4
2023-01-21T06:33:33.761Z,13.4
2023-01-21T06:34:40.887Z,15.1
2023-01-21T06:35:48.470Z,15.7
2023-01-21T06:36:55.523Z,14.6
2023-01-21T06:38:02.638Z,14
2023-01-21T06:39:09.794Z,15.5
2023-01-21T06:40:17.377Z,14.2
2023-01-21T06:41:24.072Z,14.7
2023-01-21T06:42:31.193Z,14.2
2023-01-21T06:43:38.330Z,14
2023-01-21T06:44:45.507Z,12.9
2023-01-21T06:45:52.655Z,14.2
2023-01-21T06:47:00.881Z,13.9
2023-01-21T06:48:06.769Z,13.5
2023-01-21T06:49:13.888Z,14.7
2023-01-21T06:50:21.026Z,14.8
2023-01-21T06:51:28.104Z,14.3
2023-01-21T06:52:35.230Z,14.5
2023-01-21T06:53:42.442Z,15.4
2023-01-21T06:54:49.442Z,13.2
2023-01-21T06:55:56.606Z,14.7
2023-01-21T06:57:03.807Z,13.9
2023-01-21T06:58:10.846Z,13.3
2023-01-21T06:59:17.963Z,12.7
2023-01-21T07:00:25.072Z,13.5
2023-01-21T07:01:32.691Z,15.1
2023-01-21T07:02:39.364Z,14.7
2023-01-21T07:03:46.442Z,14.8
2023-01-21T07:04:54.018Z,15.3
2023-01-21T07:06:01.077Z,16.5
2023-01-21T07:07:08.713Z,15.8
2023-01-21T07:08:15.833Z,12.8
2023-01-21T07:09:22.936Z,12.5
2023-01-21T07:10:30.053Z,14.7
2023-01-21T07:11:37.190Z,15.3
2023-01-21T07:12:44.297Z,13.1
2023-01-21T07:13:51.345Z,13.1
2023-01-21T07:14:58.535Z,14.1
2023-01-21T07:16:07.023Z,13.5
2023-01-21T07:17:13.254Z,13.5
2023-01-21T07:18:20.842Z,14.3
2023-01-21T07:19:28.008Z,14.6
2023-01-21T07:20:35.062Z,14
2023-01-21T07:21:42.317Z,14.9
2023-01-21T07:22:49.834Z,15
2023-01-21T07:23:56.922Z,15
2023-01-21T07:25:04.021Z,19
2023-01-21T07:26:11.679Z,17.8
2023-01-21T07:27:18.785Z,17.5
2023-01-21T07:28:26.049Z,16.3
2023-01-21T07:29:33.105Z,18
2023-01-21T07:30:40.257Z,18.3
2023-01-21T07:31:47.246Z,18.1
2023-01-21T07:32:54.343Z,20.7
2023-01-21T07:34:01.532Z,31
2023-01-21T07:35:08.652Z,28.9
2023-01-21T07:36:15.690Z,57.2
2023-01-21T07:37:22.897Z,20
2023-01-21T07:38:29.962Z,24.8
2023-01-21T07:39:37.089Z,19
2023-01-21T07:40:44.240Z,20
2023-01-21T07:41:51.769Z,23.5
2023-01-21T07:42:58.986Z,18.8
2023-01-21T07:44:06.078Z,16.9
2023-01-21T07:45:13.190Z,15.1
2023-01-21T07:46:20.372Z,15.1
2023-01-21T07:47:27.465Z,16.5
2023-01-21T07:48:34.646Z,15.1
2023-01-21T07:49:41.783Z,14.2
2023-01-21T07:50:49.220Z,14.8
2023-01-21T07:51:56.417Z,14.9
2023-01-21T07:53:03.540Z,13.3
2023-01-21T07:54:10.814Z,14.2
2023-01-21T07:55:18.011Z,13.5
2023-01-21T07:56:24.938Z,14.7
2023-01-21T07:57:32.105Z,16.1
2023-01-21T07:58:39.231Z,27.6
2023-01-21T07:59:46.521Z,17.2
2023-01-21T08:00:53.873Z,16.3
2023-01-21T08:02:01.165Z,15.9
2023-01-21T08:03:08.173Z,15
2023-01-21T08:04:15.243Z,17.3
2023-01-21T08:05:22.481Z,16.2
2023-01-21T08:06:30.437Z,14.6
2023-01-21T08:07:37.840Z,13.8
2023-01-21T08:08:44.889Z,22.3
2023-01-21T08:09:52.369Z,30.4
2023-01-21T08:10:59.560Z,24.9
2023-01-21T08:12:07.913Z,15.4
2023-01-21T08:13:15.285Z,208.8
2023-01-21T08:14:24.263Z,86.9
2023-01-21T08:15:33.113Z,131.5
2023-01-21T08:16:41.337Z,133.2
2023-01-21T08:17:53.067Z,75.4
2023-01-21T08:19:00.137Z,175.1
2023-01-21T08:20:07.369Z,159.3
2023-01-21T08:21:17.565Z,51
2023-01-21T08:22:25.725Z,51.4
2023-01-21T08:23:35.143Z,57.4
2023-01-21T08:24:42.327Z,64.5
2023-01-21T08:25:49.513Z,106.4
2023-01-21T08:26:56.993Z,81.6
2023-01-21T08:28:04.275Z,29
2023-01-21T08:29:11.189Z,43
2023-01-21T08:30:18.469Z,49.6
2023-01-21T08:31:26.688Z,45.2
2023-01-21T08:32:34.473Z,21.3
2023-01-21T08:33:43.560Z,33.7
2023-01-21T08:34:52.054Z,34.1
2023-01-21T08:36:00.723Z,16.3
2023-01-21T08:37:09.477Z,17
2023-01-21T08:38:17.818Z,15.4
2023-01-21T08:39:24.952Z,14
2023-01-21T08:40:32.609Z,13.4
2023-01-21T08:41:39.877Z,13.9
2023-01-21T08:42:47.117Z,12.7
2023-01-21T08:43:55.388Z,13.6
2023-01-21T08:45:03.207Z,13.9
2023-01-21T08:46:10.940Z,13.2
2023-01-21T08:47:21.598Z,13.3
2023-01-21T08:48:28.747Z,14.8
2023-01-21T08:49:37.399Z,13.2
2023-01-21T08:50:44.305Z,14.5
2023-01-21T08:51:51.878Z,14
2023-01-21T08:53:00.648Z,16
2023-01-21T08:54:07.992Z,15.5
2023-01-21T08:55:15.591Z,16.7
2023-01-21T08:56:22.814Z,15.4
2023-01-21T08:57:30.950Z,14.4
2023-01-21T08:58:38.357Z,16.2
2023-01-21T08:59:45.624Z,17.3
2023-01-21T09:00:53.413Z,15.8
2023-01-21T09:02:01.033Z,15.9
2023-01-21T09:03:08.895Z,17.8
2023-01-21T09:04:15.976Z,14.2
2023-01-21T09:05:23.452Z,15.6
2023-01-21T09:06:31.369Z,17.4
2023-01-21T09:07:38.249Z,16
2023-01-21T09:08:45.956Z,16.3
2023-01-21T09:09:53.214Z,16.8
2023-01-21T09:11:00.543Z,15.6
2023-01-21T09:12:08.087Z,15.5
2023-01-21T09:13:16.298Z,14.3
2023-01-21T09:14:24.348Z,16.9
2023-01-21T09:15:31.368Z,13.5
2023-01-21T09:16:43.766Z,14.8
2023-01-21T09:17:51.298Z,18.5
2023-01-21T09:18:58.201Z,14.4
2023-01-21T09:20:06.287Z,16.6
2023-01-21T09:21:14.576Z,15.7
2023-01-21T09:22:22.660Z,17.2
2023-01-21T09:23:29.869Z,17.2
2023-01-21T09:24:39.165Z,14.7
2023-01-21T09:25:47.193Z,12.2
2023-01-21T09:26:59.676Z,14.6
2023-01-21T09:28:08.977Z,12.8
2023-01-21T09:29:17.492Z,14.4
2023-01-21T09:30:25.095Z,15.1
2023-01-21T09:31:32.560Z,13.1
2023-01-21T09:32:40.388Z,13.5
2023-01-21T09:33:48.179Z,15
2023-01-21T09:34:56.317Z,17.3
2023-01-21T09:36:05.080Z,17.9
2023-01-21T09:37:12.911Z,16
2023-01-21T09:38:20.231Z,13.9
2023-01-21T09:39:28.482Z,14.1
2023-01-21T09:40:35.455Z,11
2023-01-21T09:41:42.541Z,13
2023-01-21T09:42:52.159Z,12
2023-01-21T09:43:59.299Z,12.1
2023-01-21T09:45:17.013Z,12.1
2023-01-21T09:46:25.010Z,12.6
2023-01-21T09:47:38.705Z,11.4
2023-01-21T09:48:48.422Z,11.9
2023-01-21T09:49:56.854Z,12
2023-01-21T09:51:07.926Z,11.9
2023-01-21T09:52:20.687Z,12.4
2023-01-21T09:53:31.276Z,12
2023-01-21T09:54:41.611Z,12.4
2023-01-21T09:55:49.884Z,11.3
2023-01-21T09:56:57.087Z,12.3
2023-01-21T09:58:10.088Z,15.4
2023-01-21T09:59:26.268Z,16.9
2023-01-21T10:00:43.846Z,15.4
2023-01-21T10:01:56.294Z,15.9
2023-01-21T10:03:04.207Z,15
2023-01-21T10:04:24.308Z,13.9
2023-01-21T10:05:42.472Z,13.8
2023-01-21T10:06:57.377Z,27
2023-01-21T10:08:07.013Z,171
2023-01-21T10:09:24.534Z,176.2
2023-01-21T10:10:31.510Z,124.1
2023-01-21T10:11:42.176Z,155
2023-01-21T10:12:53.247Z,145
2023-01-21T10:14:04.866Z,223.2
2023-01-21T10:15:17.946Z,174
2023-01-21T10:16:35.270Z,87.2
2023-01-21T10:17:47.903Z,261.7
2023-01-21T10:19:03.009Z,133.3
2023-01-21T10:20:10.169Z,85
2023-01-21T10:21:24.329Z,39.3
2023-01-21T10:22:36.590Z,56.8
2023-01-21T10:23:44.827Z,82
2023-01-21T10:24:57.710Z,31.4
2023-01-21T10:26:08.157Z,29.9
2023-01-21T10:27:16.063Z,28.9
2023-01-21T10:28:24.362Z,40.6
2023-01-21T10:29:31.557Z,29.4
2023-01-21T10:30:39.374Z,31.2
2023-01-21T10:31:46.454Z,19
2023-01-21T10:33:03.556Z,16.6
2023-01-21T10:34:11.814Z,15
2023-01-21T10:35:21.293Z,22
2023-01-21T10:36:29.025Z,16.5
2023-01-21T10:37:46.970Z,19.9
2023-01-21T10:38:57.104Z,13.2
2023-01-21T10:40:11.307Z,10.6
2023-01-21T10:41:20.029Z,11.9
2023-01-21T10:42:27.982Z,12.6
2023-01-21T10:43:46.686Z,14.2
2023-01-21T10:45:05.139Z,13.2
2023-01-21T10:46:20.489Z,13.8
2023-01-21T10:47:36.414Z,13.5
2023-01-21T10:48:55.130Z,15.4
2023-01-21T10:50:02.151Z,19.4
2023-01-21T10:51:15.783Z,20.9
2023-01-21T10:52:29.977Z,19.9
2023-01-21T10:53:44.941Z,14.4
2023-01-21T10:54:59.898Z,22.3
2023-01-21T10:56:17.906Z,30.3
2023-01-21T10:57:33.535Z,21.6
2023-01-21T10:58:51.774Z,19.2
2023-01-21T10:59:59.959Z,30.3
2023-01-21T11:01:08.363Z,20.7
2023-01-21T11:02:23.781Z,14.7
2023-01-21T11:03:31.434Z,66.2
2023-01-21T11:04:40.266Z,22.2
2023-01-21T11:05:49.983Z,69.1
2023-01-21T11:06:57.185Z,23.5
2023-01-21T11:08:04.284Z,29.7
2023-01-21T11:09:11.272Z,30.5
2023-01-21T11:10:19.327Z,25.2
2023-01-21T11:11:28.321Z,21.6
2023-01-21T11:12:37.042Z,15.2
2023-01-21T11:13:45.733Z,17.9
2023-01-21T11:14:53.303Z,20.8
2023-01-21T11:16:01.839Z,25.5
2023-01-21T11:17:09.374Z,18.2
2023-01-21T11:18:16.891Z,15
2023-01-21T11:19:32.561Z,35.3
2023-01-21T11:20:40.672Z,19.7
2023-01-21T11:21:48.942Z,20.9
2023-01-21T11:23:06.581Z,31
2023-01-21T11:24:25.115Z,123.5
2023-01-21T11:25:32.210Z,64.9
2023-01-21T11:26:39.267Z,66.5
2023-01-21T11:27:46.942Z,41.7
2023-01-21T11:28:53.935Z,122.8
2023-01-21T11:30:31.602Z,79.6
2023-01-21T11:31:28.651Z,94
2023-01-21T11:32:35.756Z,178.7
2023-01-21T11:33:42.943Z,337.5
2023-01-21T11:34:50.523Z,425.5
2023-01-21T11:36:00.733Z,468
2023-01-21T11:37:18.142Z,492.9
2023-01-21T11:38:26.016Z,349.6
2023-01-21T11:39:33.447Z,219.1
2023-01-21T11:40:43.469Z,173.6
2023-01-21T11:41:50.454Z,206.5
2023-01-21T11:42:57.800Z,226.2
2023-01-21T11:44:04.678Z,189
2023-01-21T11:45:17.177Z,101.9
2023-01-21T11:46:29.135Z,71.9
2023-01-21T11:47:39.172Z,40.1
2023-01-21T11:48:53.144Z,18.8
2023-01-21T11:50:11.099Z,18.3
2023-01-21T11:51:25.979Z,25.5
2023-01-21T11:52:34.090Z,20.9
2023-01-21T11:53:41.240Z,18.8
2023-01-21T11:54:48.660Z,18.1
2023-01-21T11:55:55.907Z,22.3
2023-01-21T11:57:03.033Z,16.9
2023-01-21T11:58:11.126Z,17.6
2023-01-21T11:59:20.186Z,12.8
2023-01-21T12:00:29.962Z,19.4
2023-01-21T12:01:38.139Z,24.5
2023-01-21T12:02:45.420Z,21.1
2023-01-21T12:03:55.967Z,28.4
2023-01-21T12:05:03.496Z,25.6
2023-01-21T12:06:24.254Z,17.6
2023-01-21T12:07:32.634Z,15.9
2023-01-21T12:08:39.932Z,21.8
2023-01-21T12:09:46.894Z,16.4
2023-01-21T12:10:55.333Z,21.2
2023-01-21T12:12:02.639Z,18
2023-01-21T12:13:19.982Z,24.6
2023-01-21T12:14:30.163Z,29
2023-01-21T12:15:37.256Z,22.1
2023-01-21T12:16:55.274Z,21.2
2023-01-21T12:18:05.985Z,26.6
2023-01-21T12:19:18.135Z,23
2023-01-21T12:20:33.961Z,18.9
2023-01-21T12:21:52.472Z,18.1
2023-01-21T12:23:10.230Z,17.6
2023-01-21T12:24:22.555Z,16.2
2023-01-21T12:25:37.473Z,16.3
2023-01-21T12:26:48.273Z,32.3
2023-01-21T12:28:02.119Z,11
2023-01-21T12:29:20.663Z,15.5
2023-01-21T12:30:30.439Z,13.6
2023-01-21T12:31:42.838Z,15.4
2023-01-21T12:32:57.088Z,25.3
2023-01-21T12:34:06.780Z,16.3
2023-01-21T12:35:19.782Z,16.9
2023-01-21T12:36:27.405Z,31.3
2023-01-21T12:37:34.469Z,15.7
2023-01-21T12:38:46.686Z,16
2023-01-21T12:39:57.591Z,13.7
2023-01-21T12:41:05.040Z,12.7
2023-01-21T12:42:13.357Z,12.4
2023-01-21T12:43:29.001Z,12.2
2023-01-21T12:44:45.275Z,13.5
2023-01-21T12:45:52.702Z,14
2023-01-21T12:46:59.963Z,14
2023-01-21T12:48:06.978Z,13.5
2023-01-21T12:49:17.244Z,13.5
2023-01-21T12:50:24.997Z,14.3
2023-01-21T12:51:42.531Z,16.7
2023-01-21T12:52:49.492Z,16.4
2023-01-21T12:54:02.728Z,16.7
2023-01-21T12:55:18.258Z,20.1
2023-01-21T12:56:27.803Z,16
2023-01-21T12:57:41.293Z,17.1
2023-01-21T12:58:54.175Z,17.8
2023-01-21T13:00:02.965Z,18.6
2023-01-21T13:01:15.103Z,21.6
2023-01-21T13:02:32.829Z,19.5
2023-01-21T13:03:42.757Z,19.4
2023-01-21T13:05:00.100Z,108.5
2023-01-21T13:06:18.293Z,90.8
2023-01-21T13:07:28.127Z,67.7
2023-01-21T13:08:40.269Z,109.5
2023-01-21T13:09:53.595Z,285.2
2023-01-21T13:11:08.960Z,358.1
2023-01-21T13:12:24.411Z,287.3
2023-01-21T13:13:31.373Z,441.6
2023-01-21T13:14:39.311Z,461.7
2023-01-21T13:15:46.524Z,274.5
2023-01-21T13:16:53.760Z,300.3
2023-01-21T13:18:01.559Z,270.9
2023-01-21T13:19:14.699Z,456.7
2023-01-21T13:20:21.733Z,347.9
2023-01-21T13:21:28.687Z,228.1
2023-01-21T13:22:41.718Z,170.9
2023-01-21T13:23:56.793Z,341.1
2023-01-21T13:25:04.750Z,353.8
2023-01-21T13:26:11.675Z,125.2
2023-01-21T13:27:18.641Z,90.2
2023-01-21T13:28:26.619Z,108.5
2023-01-21T13:29:38.690Z,102.4
2023-01-21T13:30:54.357Z,102.2
2023-01-21T13:32:01.386Z,90
2023-01-21T13:33:18.654Z,42.9
2023-01-21T13:34:30.905Z,29.2
2023-01-21T13:35:43.237Z,58.6
2023-01-21T13:36:56.385Z,56.6
2023-01-21T13:38:15.039Z,48.5
2023-01-21T13:39:28.252Z,30.9
2023-01-21T13:40:41.279Z,44.1
2023-01-21T13:41:54.546Z,25.9
2023-01-21T13:43:09.064Z,68.7
2023-01-21T13:44:25.036Z,58.5
2023-01-21T13:45:37.483Z,22.7
2023-01-21T13:46:53.611Z,28.8
2023-01-21T13:48:08.705Z,39.6
2023-01-21T13:49:25.186Z,39.1
2023-01-21T13:50:43.906Z,22.5
2023-01-21T13:51:53.789Z,24.3
2023-01-21T13:53:01.572Z,36.2
2023-01-21T13:54:19.530Z,46.7
2023-01-21T13:55:32.553Z,34.5
2023-01-21T13:56:45.473Z,34.1
2023-01-21T13:57:56.245Z,68.4
2023-01-21T13:59:13.421Z,42
2023-01-21T14:00:21.371Z,37.4
2023-01-21T14:01:36.699Z,153.6
2023-01-21T14:02:50.591Z,86
2023-01-21T14:04:03.321Z,77.6
2023-01-21T14:05:11.352Z,103.5
2023-01-21T14:06:24.449Z,108.9
2023-01-21T14:07:32.242Z,123.5
2023-01-21T14:08:39.906Z,110.6
2023-01-21T14:09:53.345Z,146
2023-01-21T14:11:03.337Z,117.6
2023-01-21T14:12:14.121Z,97.4
2023-01-21T14:13:23.998Z,100.7
2023-01-21T14:14:42.427Z,93.2
2023-01-21T14:15:53.505Z,123
2023-01-21T14:17:10.717Z,131.6
2023-01-21T14:18:24.325Z,139.5
2023-01-21T14:19:42.761Z,156.2
2023-01-21T14:20:58.721Z,98.9
2023-01-21T14:22:11.934Z,90.7
2023-01-21T14:23:26.022Z,139.5
2023-01-21T14:24:36.127Z,134.3
2023-01-21T14:25:53.365Z,183.7
2023-01-21T14:27:10.129Z,136.7
2023-01-21T14:28:27.733Z,114.9
2023-01-21T14:29:40.413Z,91.9
2023-01-21T14:30:57.874Z,74.4
2023-01-21T14:32:13.845Z,134.5
2023-01-21T14:33:23.806Z,112.9
2023-01-21T14:34:35.964Z,60.3
2023-01-21T14:35:46.685Z,52.6
2023-01-21T14:36:57.803Z,50
2023-01-21T14:38:10.340Z,148
2023-01-21T14:39:27.721Z,84.1
2023-01-21T14:40:38.384Z,63
2023-01-21T14:41:51.330Z,45.1
2023-01-21T14:43:04.054Z,39.5
2023-01-21T14:44:11.831Z,62.4
2023-01-21T14:45:19.771Z,61.7
2023-01-21T14:46:27.899Z,47
2023-01-21T14:47:35.847Z,43.1
2023-01-21T14:48:43.353Z,41
2023-01-21T14:49:50.483Z,35
2023-01-21T14:50:58.432Z,38.2
2023-01-21T14:52:10.461Z,38.4
2023-01-21T14:53:18.437Z,41
2023-01-21T14:54:28.073Z,41
2023-01-21T14:55:36.622Z,41.4
2023-01-21T14:56:44.266Z,42.3
2023-01-21T14:57:59.654Z,39.5
2023-01-21T14:59:07.840Z,44.3
2023-01-21T15:00:26.538Z,46.2
2023-01-21T15:01:36.764Z,54.8
2023-01-21T15:02:47.844Z,49.8
2023-01-21T15:03:58.547Z,48.6
2023-01-21T15:05:06.197Z,51.7
2023-01-21T15:06:15.345Z,46.5
2023-01-21T15:07:23.808Z,49.4
2023-01-21T15:08:31.341Z,55.1
2023-01-21T15:09:41.080Z,46.6
2023-01-21T15:10:48.377Z,49.7
2023-01-21T15:11:58.470Z,45.9
2023-01-21T15:13:05.916Z,53.2
2023-01-21T15:14:25.195Z,58.4
2023-01-21T15:15:34.753Z,55.2
2023-01-21T15:16:44.894Z,54.7
2023-01-21T15:17:52.305Z,54.7
2023-01-21T15:19:00.539Z,56.9
2023-01-21T15:20:11.026Z,55.3
2023-01-21T15:21:28.637Z,54
2023-01-21T15:22:36.516Z,61.4
2023-01-21T15:23:44.422Z,68.6
2023-01-21T15:24:53.803Z,56.5
2023-01-21T15:26:03.960Z,61.4
2023-01-21T15:27:11.430Z,60